sensor_id;sensor_type;location;lat;lon;timestamp;P1;durP1;ratioP1;P2;durP2;ratioP2
64339;SDS011;63709;53.258;-8.814;2023-07-13T00:01:36;9.50;;;3.22;;
64339;SDS011;63709;53.258;-8.814;2023-07-13T00:04:03;9.55;;;3.20;;
64339;SDS011;63709;53.258;-8.814;2023-07-13T00:06:29;15.90;;;3.40;;
64339;SDS011;63709;53.258;-8.814;2023-07-13T00:09:00;13.15;;;3.83;;
64339;SDS011;63709;53.258;-8.814;2023-07-13T00:11:25;8.55;;;2.85;;
64339;SDS011;63709;53.258;-8.814;2023-07-13T00:13:52;13.95;;;3.17;;
64339;SDS011;63709;53.258;-8.814;2023-07-13T00:16:18;9.48;;;3.20;;
64339;SDS011;63709;53.258;-8.814;2023-07-13T00:18:45;11.55;;;2.92;;
64339;SDS011;63709;53.258;-8.814;2023-07-13T00:21:12;10.30;;;3.38;;
64339;SDS011;63709;53.258;-8.814;2023-07-13T00:23:40;8.02;;;3.15;;
64339;SDS011;63709;53.258;-8.814;2023-07-13T00:26:12;11.45;;;3.45;;
64339;SDS011;63709;53.258;-8.814;2023-07-13T00:28:39;8.40;;;2.75;;
64339;SDS011;63709;53.258;-8.814;2023-07-13T00:31:05;9.50;;;3.20;;
64339;SDS011;63709;53.258;-8.814;2023-07-13T00:33:30;15.65;;;3.10;;
64339;SDS011;63709;53.258;-8.814;2023-07-13T00:35:57;8.35;;;2.80;;
64339;SDS011;63709;53.258;-8.814;2023-07-13T00:38:26;9.13;;;3.63;;
64339;SDS011;63709;53.258;-8.814;2023-07-13T00:40:52;8.93;;;2.72;;
64339;SDS011;63709;53.258;-8.814;2023-07-13T00:43:20;10.73;;;3.20;;
64339;SDS011;63709;53.258;-8.814;2023-07-13T00:48:21;9.32;;;2.95;;
64339;SDS011;63709;53.258;-8.814;2023-07-13T00:50:56;12.82;;;3.60;;
64339;SDS011;63709;53.258;-8.814;2023-07-13T00:53:26;12.13;;;3.50;;
64339;SDS011;63709;53.258;-8.814;2023-07-13T00:55:54;6.50;;;3.08;;
64339;SDS011;63709;53.258;-8.814;2023-07-13T00:58:22;16.42;;;3.13;;
64339;SDS011;63709;53.258;-8.814;2023-07-13T01:00:49;6.68;;;2.80;;
64339;SDS011;63709;53.258;-8.814;2023-07-13T01:03:16;13.20;;;3.55;;
64339;SDS011;63709;53.258;-8.814;2023-07-13T01:05:43;14.00;;;3.55;;
64339;SDS011;63709;53.258;-8.814;2023-07-13T01:08:15;12.23;;;3.92;;
64339;SDS011;63709;53.258;-8.814;2023-07-13T01:10:50;10.70;;;2.90;;
64339;SDS011;63709;53.258;-8.814;2023-07-13T01:13:35;11.05;;;3.40;;
64339;SDS011;63709;53.258;-8.814;2023-07-13T01:16:04;11.02;;;3.05;;
64339;SDS011;63709;53.258;-8.814;2023-07-13T01:18:38;13.55;;;2.90;;
64339;SDS011;63709;53.258;-8.814;2023-07-13T01:21:04;14.60;;;3.20;;
64339;SDS011;63709;53.258;-8.814;2023-07-13T01:23:30;11.88;;;3.88;;
64339;SDS011;63709;53.258;-8.814;2023-07-13T01:25:58;12.20;;;3.55;;
64339;SDS011;63709;53.258;-8.814;2023-07-13T01:28:26;10.20;;;3.40;;
64339;SDS011;63709;53.258;-8.814;2023-07-13T01:33:24;9.57;;;4.50;;
64339;SDS011;63709;53.258;-8.814;2023-07-13T01:35:51;10.90;;;4.45;;
64339;SDS011;63709;53.258;-8.814;2023-07-13T01:38:19;10.98;;;3.90;;
64339;SDS011;63709;53.258;-8.814;2023-07-13T01:40:47;14.18;;;4.13;;
64339;SDS011;63709;53.258;-8.814;2023-07-13T01:43:13;10.80;;;4.05;;
64339;SDS011;63709;53.258;-8.814;2023-07-13T01:48:06;13.50;;;3.22;;
64339;SDS011;63709;53.258;-8.814;2023-07-13T01:50:32;12.35;;;3.78;;
64339;SDS011;63709;53.258;-8.814;2023-07-13T01:52:59;8.98;;;3.20;;
64339;SDS011;63709;53.258;-8.814;2023-07-13T01:55:26;11.52;;;3.40;;
64339;SDS011;63709;53.258;-8.814;2023-07-13T01:57:52;11.05;;;3.20;;
64339;SDS011;63709;53.258;-8.814;2023-07-13T02:00:17;12.52;;;3.22;;
64339;SDS011;63709;53.258;-8.814;2023-07-13T02:05:09;15.27;;;3.58;;
64339;SDS011;63709;53.258;-8.814;2023-07-13T02:07:36;12.55;;;3.60;;
64339;SDS011;63709;53.258;-8.814;2023-07-13T02:10:06;14.60;;;4.50;;
64339;SDS011;63709;53.258;-8.814;2023-07-13T02:12:35;14.02;;;3.88;;
64339;SDS011;63709;53.258;-8.814;2023-07-13T02:15:02;13.85;;;3.60;;
64339;SDS011;63709;53.258;-8.814;2023-07-13T02:17:30;13.48;;;3.80;;
64339;SDS011;63709;53.258;-8.814;2023-07-13T02:19:57;10.88;;;3.30;;
64339;SDS011;63709;53.258;-8.814;2023-07-13T02:22:27;13.40;;;3.40;;
64339;SDS011;63709;53.258;-8.814;2023-07-13T02:24:52;11.95;;;3.38;;
64339;SDS011;63709;53.258;-8.814;2023-07-13T02:27:18;13.98;;;4.35;;
64339;SDS011;63709;53.258;-8.814;2023-07-13T02:29:45;15.88;;;3.72;;
64339;SDS011;63709;53.258;-8.814;2023-07-13T02:32:11;14.20;;;3.70;;
64339;SDS011;63709;53.258;-8.814;2023-07-13T02:34:41;10.20;;;3.47;;
64339;SDS011;63709;53.258;-8.814;2023-07-13T02:37:14;11.02;;;3.65;;
64339;SDS011;63709;53.258;-8.814;2023-07-13T02:39:40;16.65;;;3.80;;
64339;SDS011;63709;53.258;-8.814;2023-07-13T02:44:32;17.10;;;3.80;;
64339;SDS011;63709;53.258;-8.814;2023-07-13T02:46:58;11.75;;;3.63;;
64339;SDS011;63709;53.258;-8.814;2023-07-13T02:49:24;8.93;;;3.30;;
64339;SDS011;63709;53.258;-8.814;2023-07-13T02:51:50;12.00;;;3.95;;
64339;SDS011;63709;53.258;-8.814;2023-07-13T02:56:41;10.55;;;3.65;;
64339;SDS011;63709;53.258;-8.814;2023-07-13T02:59:14;7.20;;;2.42;;
64339;SDS011;63709;53.258;-8.814;2023-07-13T03:01:41;6.75;;;2.60;;
64339;SDS011;63709;53.258;-8.814;2023-07-13T03:04:06;10.88;;;3.25;;
64339;SDS011;63709;53.258;-8.814;2023-07-13T03:06:32;9.02;;;2.95;;
64339;SDS011;63709;53.258;-8.814;2023-07-13T03:08:58;10.75;;;3.13;;
64339;SDS011;63709;53.258;-8.814;2023-07-13T03:11:25;9.60;;;2.92;;
64339;SDS011;63709;53.258;-8.814;2023-07-13T03:13:51;9.48;;;3.42;;
64339;SDS011;63709;53.258;-8.814;2023-07-13T03:18:44;12.30;;;3.40;;
64339;SDS011;63709;53.258;-8.814;2023-07-13T03:21:13;12.00;;;3.63;;
64339;SDS011;63709;53.258;-8.814;2023-07-13T03:23:39;9.95;;;3.70;;
64339;SDS011;63709;53.258;-8.814;2023-07-13T03:26:08;9.82;;;3.38;;
64339;SDS011;63709;53.258;-8.814;2023-07-13T03:28:36;12.15;;;3.90;;
64339;SDS011;63709;53.258;-8.814;2023-07-13T03:31:03;12.65;;;3.83;;
64339;SDS011;63709;53.258;-8.814;2023-07-13T03:33:31;9.52;;;3.60;;
64339;SDS011;63709;53.258;-8.814;2023-07-13T03:35:57;11.82;;;3.97;;
64339;SDS011;63709;53.258;-8.814;2023-07-13T03:40:49;15.55;;;3.90;;
64339;SDS011;63709;53.258;-8.814;2023-07-13T03:43:15;10.02;;;4.30;;
64339;SDS011;63709;53.258;-8.814;2023-07-13T03:45:41;12.15;;;4.22;;
64339;SDS011;63709;53.258;-8.814;2023-07-13T03:48:07;7.68;;;4.40;;
64339;SDS011;63709;53.258;-8.814;2023-07-13T03:50:33;10.45;;;4.10;;
64339;SDS011;63709;53.258;-8.814;2023-07-13T03:53:02;12.05;;;4.10;;
64339;SDS011;63709;53.258;-8.814;2023-07-13T03:55:28;10.40;;;3.90;;
64339;SDS011;63709;53.258;-8.814;2023-07-13T03:57:59;10.25;;;3.80;;
64339;SDS011;63709;53.258;-8.814;2023-07-13T04:00:46;6.85;;;3.55;;
64339;SDS011;63709;53.258;-8.814;2023-07-13T04:03:11;7.53;;;3.75;;
64339;SDS011;63709;53.258;-8.814;2023-07-13T04:05:37;11.15;;;3.40;;
64339;SDS011;63709;53.258;-8.814;2023-07-13T04:08:05;9.88;;;3.60;;
64339;SDS011;63709;53.258;-8.814;2023-07-13T04:10:31;8.70;;;4.07;;
64339;SDS011;63709;53.258;-8.814;2023-07-13T04:13:00;8.50;;;3.47;;
64339;SDS011;63709;53.258;-8.814;2023-07-13T04:15:26;6.38;;;3.28;;
64339;SDS011;63709;53.258;-8.814;2023-07-13T04:17:52;7.97;;;3.47;;
64339;SDS011;63709;53.258;-8.814;2023-07-13T04:20:18;11.98;;;4.00;;
64339;SDS011;63709;53.258;-8.814;2023-07-13T04:22:47;8.90;;;3.70;;
64339;SDS011;63709;53.258;-8.814;2023-07-13T04:25:14;9.23;;;3.63;;
64339;SDS011;63709;53.258;-8.814;2023-07-13T04:27:42;10.55;;;3.38;;
64339;SDS011;63709;53.258;-8.814;2023-07-13T04:30:10;7.22;;;3.50;;
64339;SDS011;63709;53.258;-8.814;2023-07-13T04:32:36;6.55;;;3.50;;
64339;SDS011;63709;53.258;-8.814;2023-07-13T04:35:02;11.43;;;4.00;;
64339;SDS011;63709;53.258;-8.814;2023-07-13T04:37:29;9.27;;;3.40;;
64339;SDS011;63709;53.258;-8.814;2023-07-13T04:39:55;8.77;;;3.28;;
64339;SDS011;63709;53.258;-8.814;2023-07-13T04:42:21;9.02;;;3.42;;
64339;SDS011;63709;53.258;-8.814;2023-07-13T04:44:50;8.27;;;3.60;;
64339;SDS011;63709;53.258;-8.814;2023-07-13T04:47:17;14.52;;;3.90;;
64339;SDS011;63709;53.258;-8.814;2023-07-13T04:49:43;8.43;;;3.80;;
64339;SDS011;63709;53.258;-8.814;2023-07-13T04:57:13;7.85;;;3.20;;
64339;SDS011;63709;53.258;-8.814;2023-07-13T04:59:38;7.28;;;3.55;;
64339;SDS011;63709;53.258;-8.814;2023-07-13T05:02:04;7.25;;;3.58;;
64339;SDS011;63709;53.258;-8.814;2023-07-13T05:04:31;9.70;;;3.58;;
64339;SDS011;63709;53.258;-8.814;2023-07-13T05:06:58;9.43;;;3.30;;
64339;SDS011;63709;53.258;-8.814;2023-07-13T05:09:24;8.32;;;3.55;;
64339;SDS011;63709;53.258;-8.814;2023-07-13T05:11:49;9.98;;;3.53;;
64339;SDS011;63709;53.258;-8.814;2023-07-13T05:14:16;7.72;;;3.75;;
64339;SDS011;63709;53.258;-8.814;2023-07-13T05:16:42;10.25;;;3.88;;
64339;SDS011;63709;53.258;-8.814;2023-07-13T05:19:10;10.38;;;3.55;;
64339;SDS011;63709;53.258;-8.814;2023-07-13T05:21:35;10.90;;;3.75;;
64339;SDS011;63709;53.258;-8.814;2023-07-13T05:24:02;9.40;;;3.60;;
64339;SDS011;63709;53.258;-8.814;2023-07-13T05:26:30;11.20;;;3.50;;
64339;SDS011;63709;53.258;-8.814;2023-07-13T05:28:55;10.65;;;3.80;;
64339;SDS011;63709;53.258;-8.814;2023-07-13T05:31:21;8.75;;;3.60;;
64339;SDS011;63709;53.258;-8.814;2023-07-13T05:33:47;11.70;;;3.92;;
64339;SDS011;63709;53.258;-8.814;2023-07-13T05:36:13;7.95;;;3.60;;
64339;SDS011;63709;53.258;-8.814;2023-07-13T05:38:40;7.68;;;3.90;;
64339;SDS011;63709;53.258;-8.814;2023-07-13T05:41:05;8.95;;;3.38;;
64339;SDS011;63709;53.258;-8.814;2023-07-13T05:43:31;7.30;;;3.38;;
64339;SDS011;63709;53.258;-8.814;2023-07-13T05:45:57;12.20;;;4.05;;
64339;SDS011;63709;53.258;-8.814;2023-07-13T05:48:24;9.98;;;4.22;;
64339;SDS011;63709;53.258;-8.814;2023-07-13T05:50:51;10.88;;;3.72;;
64339;SDS011;63709;53.258;-8.814;2023-07-13T05:53:18;10.70;;;4.50;;
64339;SDS011;63709;53.258;-8.814;2023-07-13T05:55:47;8.80;;;3.90;;
64339;SDS011;63709;53.258;-8.814;2023-07-13T05:58:20;8.40;;;3.63;;
64339;SDS011;63709;53.258;-8.814;2023-07-13T06:00:46;6.88;;;3.67;;
64339;SDS011;63709;53.258;-8.814;2023-07-13T06:03:13;7.78;;;3.45;;
64339;SDS011;63709;53.258;-8.814;2023-07-13T06:05:41;6.75;;;3.03;;
64339;SDS011;63709;53.258;-8.814;2023-07-13T06:08:07;7.80;;;3.60;;
64339;SDS011;63709;53.258;-8.814;2023-07-13T06:10:34;5.47;;;3.30;;
64339;SDS011;63709;53.258;-8.814;2023-07-13T06:13:01;7.72;;;3.97;;
64339;SDS011;63709;53.258;-8.814;2023-07-13T06:15:31;7.47;;;3.50;;
64339;SDS011;63709;53.258;-8.814;2023-07-13T06:17:57;9.48;;;4.07;;
64339;SDS011;63709;53.258;-8.814;2023-07-13T06:20:22;8.43;;;4.00;;
64339;SDS011;63709;53.258;-8.814;2023-07-13T06:22:48;10.98;;;3.72;;
64339;SDS011;63709;53.258;-8.814;2023-07-13T06:25:15;11.45;;;3.40;;
64339;SDS011;63709;53.258;-8.814;2023-07-13T06:27:40;7.97;;;3.88;;
64339;SDS011;63709;53.258;-8.814;2023-07-13T06:30:06;6.30;;;3.25;;
64339;SDS011;63709;53.258;-8.814;2023-07-13T06:32:32;10.95;;;4.07;;
64339;SDS011;63709;53.258;-8.814;2023-07-13T06:34:58;9.30;;;3.40;;
64339;SDS011;63709;53.258;-8.814;2023-07-13T06:37:23;8.32;;;3.53;;
64339;SDS011;63709;53.258;-8.814;2023-07-13T06:39:50;6.43;;;3.28;;
64339;SDS011;63709;53.258;-8.814;2023-07-13T06:42:17;10.45;;;3.50;;
64339;SDS011;63709;53.258;-8.814;2023-07-13T06:44:44;6.63;;;3.70;;
64339;SDS011;63709;53.258;-8.814;2023-07-13T06:47:10;9.20;;;3.95;;
64339;SDS011;63709;53.258;-8.814;2023-07-13T06:49:38;11.75;;;3.70;;
64339;SDS011;63709;53.258;-8.814;2023-07-13T06:52:05;9.30;;;3.60;;
64339;SDS011;63709;53.258;-8.814;2023-07-13T06:54:36;9.35;;;4.10;;
64339;SDS011;63709;53.258;-8.814;2023-07-13T06:57:02;9.02;;;3.58;;
64339;SDS011;63709;53.258;-8.814;2023-07-13T06:59:29;13.07;;;3.70;;
64339;SDS011;63709;53.258;-8.814;2023-07-13T07:01:55;8.10;;;3.10;;
64339;SDS011;63709;53.258;-8.814;2023-07-13T07:04:23;6.47;;;3.58;;
64339;SDS011;63709;53.258;-8.814;2023-07-13T07:06:49;6.78;;;3.05;;
64339;SDS011;63709;53.258;-8.814;2023-07-13T07:09:14;8.63;;;3.30;;
64339;SDS011;63709;53.258;-8.814;2023-07-13T07:11:41;5.40;;;3.05;;
64339;SDS011;63709;53.258;-8.814;2023-07-13T07:14:07;8.50;;;3.20;;
64339;SDS011;63709;53.258;-8.814;2023-07-13T07:16:35;9.57;;;3.65;;
64339;SDS011;63709;53.258;-8.814;2023-07-13T07:19:03;8.07;;;2.40;;
64339;SDS011;63709;53.258;-8.814;2023-07-13T07:21:29;7.40;;;3.88;;
64339;SDS011;63709;53.258;-8.814;2023-07-13T07:23:54;6.95;;;3.10;;
64339;SDS011;63709;53.258;-8.814;2023-07-13T07:26:20;9.60;;;3.30;;
64339;SDS011;63709;53.258;-8.814;2023-07-13T07:28:45;11.43;;;3.78;;
64339;SDS011;63709;53.258;-8.814;2023-07-13T07:31:12;7.85;;;2.70;;
64339;SDS011;63709;53.258;-8.814;2023-07-13T07:33:38;10.50;;;3.20;;
64339;SDS011;63709;53.258;-8.814;2023-07-13T07:36:03;8.48;;;3.33;;
64339;SDS011;63709;53.258;-8.814;2023-07-13T07:38:30;8.68;;;3.67;;
64339;SDS011;63709;53.258;-8.814;2023-07-13T07:40:55;11.77;;;3.65;;
64339;SDS011;63709;53.258;-8.814;2023-07-13T07:43:22;11.90;;;3.97;;
64339;SDS011;63709;53.258;-8.814;2023-07-13T07:45:53;10.90;;;3.30;;
64339;SDS011;63709;53.258;-8.814;2023-07-13T07:48:18;7.85;;;3.60;;
64339;SDS011;63709;53.258;-8.814;2023-07-13T07:50:44;9.50;;;3.50;;
64339;SDS011;63709;53.258;-8.814;2023-07-13T07:53:10;13.27;;;3.88;;
64339;SDS011;63709;53.258;-8.814;2023-07-13T07:55:37;6.90;;;3.33;;
64339;SDS011;63709;53.258;-8.814;2023-07-13T07:58:02;6.93;;;3.30;;
64339;SDS011;63709;53.258;-8.814;2023-07-13T08:00:28;8.95;;;3.35;;
64339;SDS011;63709;53.258;-8.814;2023-07-13T08:02:57;7.38;;;3.40;;
64339;SDS011;63709;53.258;-8.814;2023-07-13T08:05:26;7.20;;;3.30;;
64339;SDS011;63709;53.258;-8.814;2023-07-13T08:07:51;10.10;;;3.70;;
64339;SDS011;63709;53.258;-8.814;2023-07-13T08:10:17;12.00;;;3.60;;
64339;SDS011;63709;53.258;-8.814;2023-07-13T08:12:43;11.55;;;4.97;;
64339;SDS011;63709;53.258;-8.814;2023-07-13T08:15:12;9.45;;;3.70;;
64339;SDS011;63709;53.258;-8.814;2023-07-13T08:17:40;7.72;;;3.25;;
64339;SDS011;63709;53.258;-8.814;2023-07-13T08:22:32;8.57;;;3.30;;
64339;SDS011;63709;53.258;-8.814;2023-07-13T08:24:59;10.07;;;4.13;;
64339;SDS011;63709;53.258;-8.814;2023-07-13T08:27:26;8.55;;;3.72;;
64339;SDS011;63709;53.258;-8.814;2023-07-13T08:29:53;7.13;;;3.17;;
64339;SDS011;63709;53.258;-8.814;2023-07-13T08:32:20;11.63;;;3.50;;
64339;SDS011;63709;53.258;-8.814;2023-07-13T08:34:49;10.48;;;3.83;;
64339;SDS011;63709;53.258;-8.814;2023-07-13T08:37:17;11.60;;;3.33;;
64339;SDS011;63709;53.258;-8.814;2023-07-13T08:44:56;8.15;;;3.72;;
64339;SDS011;63709;53.258;-8.814;2023-07-13T08:47:22;8.65;;;3.75;;
64339;SDS011;63709;53.258;-8.814;2023-07-13T08:49:49;10.52;;;4.40;;
64339;SDS011;63709;53.258;-8.814;2023-07-13T08:57:41;10.98;;;3.63;;
64339;SDS011;63709;53.258;-8.814;2023-07-13T09:00:10;6.60;;;3.70;;
64339;SDS011;63709;53.258;-8.814;2023-07-13T09:02:54;8.93;;;3.50;;
64339;SDS011;63709;53.258;-8.814;2023-07-13T09:10:26;6.70;;;3.42;;
64339;SDS011;63709;53.258;-8.814;2023-07-13T09:13:05;10.38;;;3.20;;
64339;SDS011;63709;53.258;-8.814;2023-07-13T09:15:59;7.93;;;2.88;;
64339;SDS011;63709;53.258;-8.814;2023-07-13T09:18:27;8.00;;;2.70;;
64339;SDS011;63709;53.258;-8.814;2023-07-13T09:21:02;8.82;;;2.70;;
64339;SDS011;63709;53.258;-8.814;2023-07-13T09:23:31;7.75;;;3.20;;
64339;SDS011;63709;53.258;-8.814;2023-07-13T09:26:02;4.35;;;2.70;;
64339;SDS011;63709;53.258;-8.814;2023-07-13T09:28:37;10.43;;;2.90;;
64339;SDS011;63709;53.258;-8.814;2023-07-13T09:31:17;11.38;;;3.10;;
64339;SDS011;63709;53.258;-8.814;2023-07-13T09:33:48;6.43;;;3.03;;
64339;SDS011;63709;53.258;-8.814;2023-07-13T09:36:23;4.25;;;2.35;;
64339;SDS011;63709;53.258;-8.814;2023-07-13T09:41:41;5.32;;;2.15;;
64339;SDS011;63709;53.258;-8.814;2023-07-13T09:44:36;2.75;;;1.48;;
64339;SDS011;63709;53.258;-8.814;2023-07-13T09:47:12;5.00;;;1.92;;
64339;SDS011;63709;53.258;-8.814;2023-07-13T09:49:41;4.10;;;1.83;;
64339;SDS011;63709;53.258;-8.814;2023-07-13T09:52:11;5.05;;;1.85;;
64339;SDS011;63709;53.258;-8.814;2023-07-13T09:54:38;5.97;;;2.13;;
64339;SDS011;63709;53.258;-8.814;2023-07-13T09:57:26;4.78;;;2.10;;
64339;SDS011;63709;53.258;-8.814;2023-07-13T09:59:54;4.00;;;2.40;;
64339;SDS011;63709;53.258;-8.814;2023-07-13T10:02:26;5.80;;;2.20;;
64339;SDS011;63709;53.258;-8.814;2023-07-13T10:05:24;8.63;;;2.60;;
64339;SDS011;63709;53.258;-8.814;2023-07-13T10:07:45;7.93;;;2.72;;
64339;SDS011;63709;53.258;-8.814;2023-07-13T10:10:15;7.90;;;3.15;;
64339;SDS011;63709;53.258;-8.814;2023-07-13T10:12:48;4.05;;;2.08;;
64339;SDS011;63709;53.258;-8.814;2023-07-13T10:15:19;8.07;;;2.50;;
64339;SDS011;63709;53.258;-8.814;2023-07-13T10:17:47;5.50;;;2.20;;
64339;SDS011;63709;53.258;-8.814;2023-07-13T10:20:16;5.28;;;2.50;;
64339;SDS011;63709;53.258;-8.814;2023-07-13T10:25:23;3.85;;;1.92;;
64339;SDS011;63709;53.258;-8.814;2023-07-13T10:27:52;2.63;;;1.70;;
64339;SDS011;63709;53.258;-8.814;2023-07-13T10:30:56;2.63;;;1.52;;
64339;SDS011;63709;53.258;-8.814;2023-07-13T10:33:20;4.22;;;1.65;;
64339;SDS011;63709;53.258;-8.814;2023-07-13T10:35:48;3.50;;;1.80;;
64339;SDS011;63709;53.258;-8.814;2023-07-13T10:38:20;2.58;;;1.70;;
64339;SDS011;63709;53.258;-8.814;2023-07-13T10:41:02;2.70;;;1.60;;
64339;SDS011;63709;53.258;-8.814;2023-07-13T10:46:07;3.08;;;1.67;;
64339;SDS011;63709;53.258;-8.814;2023-07-13T10:48:39;2.92;;;1.73;;
64339;SDS011;63709;53.258;-8.814;2023-07-13T10:51:08;2.85;;;1.27;;
64339;SDS011;63709;53.258;-8.814;2023-07-13T10:53:37;3.08;;;1.70;;
64339;SDS011;63709;53.258;-8.814;2023-07-13T10:56:08;2.08;;;1.20;;
64339;SDS011;63709;53.258;-8.814;2023-07-13T11:04:27;3.85;;;1.58;;
64339;SDS011;63709;53.258;-8.814;2023-07-13T11:06:59;3.75;;;1.75;;
64339;SDS011;63709;53.258;-8.814;2023-07-13T11:09:38;3.13;;;1.45;;
64339;SDS011;63709;53.258;-8.814;2023-07-13T11:12:09;2.47;;;1.30;;
64339;SDS011;63709;53.258;-8.814;2023-07-13T11:30:38;2.30;;;1.60;;
64339;SDS011;63709;53.258;-8.814;2023-07-13T11:35:41;3.92;;;1.90;;
64339;SDS011;63709;53.258;-8.814;2023-07-13T11:38:35;5.03;;;2.05;;
64339;SDS011;63709;53.258;-8.814;2023-07-13T11:41:17;3.08;;;1.77;;
64339;SDS011;63709;53.258;-8.814;2023-07-13T11:43:55;3.47;;;1.60;;
64339;SDS011;63709;53.258;-8.814;2023-07-13T11:46:30;2.22;;;1.48;;
64339;SDS011;63709;53.258;-8.814;2023-07-13T11:48:58;4.07;;;1.88;;
64339;SDS011;63709;53.258;-8.814;2023-07-13T11:51:26;2.42;;;1.83;;
64339;SDS011;63709;53.258;-8.814;2023-07-13T11:54:00;3.72;;;2.15;;
64339;SDS011;63709;53.258;-8.814;2023-07-13T11:56:28;4.35;;;2.10;;
64339;SDS011;63709;53.258;-8.814;2023-07-13T11:58:55;3.20;;;2.03;;
64339;SDS011;63709;53.258;-8.814;2023-07-13T12:01:30;6.07;;;2.47;;
64339;SDS011;63709;53.258;-8.814;2023-07-13T12:04:03;5.55;;;2.30;;
64339;SDS011;63709;53.258;-8.814;2023-07-13T12:09:14;3.83;;;2.33;;
64339;SDS011;63709;53.258;-8.814;2023-07-13T12:11:45;3.42;;;2.10;;
64339;SDS011;63709;53.258;-8.814;2023-07-13T12:14:16;8.20;;;2.20;;
64339;SDS011;63709;53.258;-8.814;2023-07-13T12:16:43;10.63;;;2.50;;
64339;SDS011;63709;53.258;-8.814;2023-07-13T12:19:20;3.55;;;2.40;;
64339;SDS011;63709;53.258;-8.814;2023-07-13T12:21:49;4.20;;;2.45;;
64339;SDS011;63709;53.258;-8.814;2023-07-13T12:24:19;5.40;;;2.30;;
64339;SDS011;63709;53.258;-8.814;2023-07-13T12:27:05;3.35;;;1.85;;
64339;SDS011;63709;53.258;-8.814;2023-07-13T12:29:32;4.18;;;2.10;;
64339;SDS011;63709;53.258;-8.814;2023-07-13T12:31:58;4.68;;;2.00;;
64339;SDS011;63709;53.258;-8.814;2023-07-13T12:36:53;4.93;;;2.03;;
64339;SDS011;63709;53.258;-8.814;2023-07-13T12:41:52;4.57;;;2.00;;
64339;SDS011;63709;53.258;-8.814;2023-07-13T12:44:25;3.88;;;2.15;;
64339;SDS011;63709;53.258;-8.814;2023-07-13T12:47:14;5.80;;;2.10;;
64339;SDS011;63709;53.258;-8.814;2023-07-13T12:49:42;7.35;;;1.95;;
64339;SDS011;63709;53.258;-8.814;2023-07-13T12:52:16;2.08;;;1.60;;
64339;SDS011;63709;53.258;-8.814;2023-07-13T12:54:53;2.15;;;1.45;;
64339;SDS011;63709;53.258;-8.814;2023-07-13T12:57:23;2.72;;;1.60;;
64339;SDS011;63709;53.258;-8.814;2023-07-13T12:59:52;1.70;;;1.30;;
64339;SDS011;63709;53.258;-8.814;2023-07-13T13:02:33;2.97;;;1.13;;
64339;SDS011;63709;53.258;-8.814;2023-07-13T13:05:00;3.92;;;1.20;;
64339;SDS011;63709;53.258;-8.814;2023-07-13T13:07:27;1.80;;;1.17;;
64339;SDS011;63709;53.258;-8.814;2023-07-13T13:09:56;2.20;;;1.00;;
64339;SDS011;63709;53.258;-8.814;2023-07-13T13:12:22;1.27;;;1.02;;
64339;SDS011;63709;53.258;-8.814;2023-07-13T13:14:51;1.65;;;1.00;;
64339;SDS011;63709;53.258;-8.814;2023-07-13T13:17:19;1.65;;;1.00;;
64339;SDS011;63709;53.258;-8.814;2023-07-13T13:19:50;2.35;;;1.30;;
64339;SDS011;63709;53.258;-8.814;2023-07-13T13:22:20;2.45;;;1.17;;
64339;SDS011;63709;53.258;-8.814;2023-07-13T13:24:47;1.25;;;0.98;;
64339;SDS011;63709;53.258;-8.814;2023-07-13T13:27:16;2.38;;;1.20;;
64339;SDS011;63709;53.258;-8.814;2023-07-13T13:29:47;2.70;;;1.13;;
64339;SDS011;63709;53.258;-8.814;2023-07-13T13:32:17;1.65;;;0.95;;
64339;SDS011;63709;53.258;-8.814;2023-07-13T13:34:44;2.17;;;1.00;;
64339;SDS011;63709;53.258;-8.814;2023-07-13T13:37:17;2.30;;;1.17;;
64339;SDS011;63709;53.258;-8.814;2023-07-13T13:39:46;1.70;;;1.00;;
64339;SDS011;63709;53.258;-8.814;2023-07-13T13:42:13;1.40;;;0.80;;
64339;SDS011;63709;53.258;-8.814;2023-07-13T13:44:40;2.17;;;0.88;;
64339;SDS011;63709;53.258;-8.814;2023-07-13T13:47:12;5.32;;;1.23;;
64339;SDS011;63709;53.258;-8.814;2023-07-13T13:50:12;2.45;;;1.02;;
64339;SDS011;63709;53.258;-8.814;2023-07-13T13:52:43;1.67;;;1.00;;
64339;SDS011;63709;53.258;-8.814;2023-07-13T13:55:13;1.33;;;0.90;;
64339;SDS011;63709;53.258;-8.814;2023-07-13T13:57:39;2.50;;;1.08;;
64339;SDS011;63709;53.258;-8.814;2023-07-13T14:00:05;1.58;;;1.02;;
64339;SDS011;63709;53.258;-8.814;2023-07-13T14:02:31;1.73;;;1.10;;
64339;SDS011;63709;53.258;-8.814;2023-07-13T14:07:26;5.43;;;1.58;;
64339;SDS011;63709;53.258;-8.814;2023-07-13T14:09:54;1.67;;;1.25;;
64339;SDS011;63709;53.258;-8.814;2023-07-13T14:12:22;4.28;;;1.30;;
64339;SDS011;63709;53.258;-8.814;2023-07-13T14:14:51;2.60;;;1.25;;
64339;SDS011;63709;53.258;-8.814;2023-07-13T14:17:21;5.63;;;1.40;;
64339;SDS011;63709;53.258;-8.814;2023-07-13T14:19:52;5.47;;;1.70;;
64339;SDS011;63709;53.258;-8.814;2023-07-13T14:22:24;4.78;;;1.40;;
64339;SDS011;63709;53.258;-8.814;2023-07-13T14:24:55;4.40;;;2.35;;
64339;SDS011;63709;53.258;-8.814;2023-07-13T14:27:25;6.57;;;2.28;;
64339;SDS011;63709;53.258;-8.814;2023-07-13T14:29:51;6.35;;;2.70;;
64339;SDS011;63709;53.258;-8.814;2023-07-13T14:32:18;5.68;;;2.20;;
64339;SDS011;63709;53.258;-8.814;2023-07-13T14:34:43;9.07;;;2.95;;
64339;SDS011;63709;53.258;-8.814;2023-07-13T14:37:12;8.80;;;1.92;;
64339;SDS011;63709;53.258;-8.814;2023-07-13T14:39:39;2.72;;;1.52;;
64339;SDS011;63709;53.258;-8.814;2023-07-13T14:42:08;6.85;;;1.95;;
64339;SDS011;63709;53.258;-8.814;2023-07-13T14:44:35;5.85;;;2.60;;
64339;SDS011;63709;53.258;-8.814;2023-07-13T14:47:03;11.60;;;3.10;;
64339;SDS011;63709;53.258;-8.814;2023-07-13T14:49:36;10.00;;;2.83;;
64339;SDS011;63709;53.258;-8.814;2023-07-13T14:52:14;11.95;;;3.15;;
64339;SDS011;63709;53.258;-8.814;2023-07-13T14:54:42;9.48;;;3.42;;
64339;SDS011;63709;53.258;-8.814;2023-07-13T14:57:10;8.25;;;2.97;;
64339;SDS011;63709;53.258;-8.814;2023-07-13T14:59:40;8.27;;;3.10;;
64339;SDS011;63709;53.258;-8.814;2023-07-13T15:05:15;5.57;;;3.15;;
64339;SDS011;63709;53.258;-8.814;2023-07-13T15:07:46;8.40;;;3.10;;
64339;SDS011;63709;53.258;-8.814;2023-07-13T15:10:15;9.40;;;3.50;;
64339;SDS011;63709;53.258;-8.814;2023-07-13T15:12:42;8.43;;;3.50;;
64339;SDS011;63709;53.258;-8.814;2023-07-13T15:15:08;13.35;;;3.55;;
64339;SDS011;63709;53.258;-8.814;2023-07-13T15:17:38;12.02;;;3.55;;
64339;SDS011;63709;53.258;-8.814;2023-07-13T15:20:11;13.48;;;3.60;;
64339;SDS011;63709;53.258;-8.814;2023-07-13T15:22:43;11.25;;;3.30;;
64339;SDS011;63709;53.258;-8.814;2023-07-13T15:25:23;9.55;;;3.20;;
64339;SDS011;63709;53.258;-8.814;2023-07-13T15:27:51;6.50;;;3.20;;
64339;SDS011;63709;53.258;-8.814;2023-07-13T15:30:18;10.43;;;3.10;;
64339;SDS011;63709;53.258;-8.814;2023-07-13T15:32:45;8.75;;;3.60;;
64339;SDS011;63709;53.258;-8.814;2023-07-13T15:35:16;6.40;;;2.63;;
64339;SDS011;63709;53.258;-8.814;2023-07-13T15:37:44;6.85;;;3.47;;
64339;SDS011;63709;53.258;-8.814;2023-07-13T15:40:10;6.20;;;2.95;;
64339;SDS011;63709;53.258;-8.814;2023-07-13T15:42:38;6.32;;;2.17;;
64339;SDS011;63709;53.258;-8.814;2023-07-13T15:45:21;5.65;;;2.35;;
64339;SDS011;63709;53.258;-8.814;2023-07-13T15:47:50;8.77;;;2.55;;
64339;SDS011;63709;53.258;-8.814;2023-07-13T15:50:17;8.25;;;2.42;;
64339;SDS011;63709;53.258;-8.814;2023-07-13T15:52:47;8.30;;;2.70;;
64339;SDS011;63709;53.258;-8.814;2023-07-13T15:55:22;5.85;;;2.50;;
64339;SDS011;63709;53.258;-8.814;2023-07-13T15:57:51;9.57;;;2.60;;
64339;SDS011;63709;53.258;-8.814;2023-07-13T16:00:22;8.60;;;2.83;;
64339;SDS011;63709;53.258;-8.814;2023-07-13T16:02:50;9.40;;;2.85;;
64339;SDS011;63709;53.258;-8.814;2023-07-13T16:05:18;6.95;;;3.05;;
64339;SDS011;63709;53.258;-8.814;2023-07-13T16:07:46;13.48;;;3.40;;
64339;SDS011;63709;53.258;-8.814;2023-07-13T16:10:16;11.05;;;3.72;;